Time;durP1;ratioP1;P1;durP2;ratioP2;P2;SDS_P1;SDS_P2;PMS_P1;PMS_P2;Temp;Humidity;BMP_temperature;BMP_pressure;BME280_temperature;BME280_humidity;BME280_pressure;Samples;Min_cycle;Max_cycle;Signal;HPM_P1;HPM_P2
2022/03/21 00:00:56;;;;;;;2.60;2.50;;;18.70;36.70;;;;;;5038879;28;20223;-56
2022/03/21 00:03:29;;;;;;;2.60;2.40;;;18.70;36.80;;;;;;5037853;28;20964;-56
2022/03/21 00:05:57;;;;;;;3.50;2.80;;;18.60;36.70;;;;;;5037080;28;20442;-57
2022/03/21 00:08:24;;;;;;;5.80;2.50;;;18.60;36.70;;;;;;5034485;28;20525;-56
2022/03/21 00:10:51;;;;;;;2.73;2.53;;;18.60;36.70;;;;;;5039638;28;20446;-56
2022/03/21 00:13:17;;;;;;;2.63;2.47;;;18.70;36.80;;;;;;5038474;28;20915;-57
2022/03/21 00:15:44;;;;;;;2.43;2.27;;;18.60;36.70;;;;;;5038611;28;20422;-55
2022/03/21 00:18:13;;;;;;;2.43;2.23;;;18.60;36.70;;;;;;5039074;28;20452;-56
2022/03/21 00:20:44;;;;;;;2.87;2.67;;;18.60;36.70;;;;;;5035628;28;20454;-56
2022/03/21 00:23:09;;;;;;;2.17;2.07;;;18.60;36.70;;;;;;5036397;28;20521;-56
2022/03/21 00:25:36;;;;;;;3.00;2.30;;;18.60;36.70;;;;;;5036578;28;20544;-57
2022/03/21 00:28:02;;;;;;;2.80;2.60;;;18.60;36.80;;;;;;5044027;28;20671;-56
2022/03/21 00:30:29;;;;;;;2.43;2.30;;;18.60;36.80;;;;;;5039118;28;20496;-56
2022/03/21 00:32:55;;;;;;;3.17;2.40;;;18.60;36.70;;;;;;5038667;28;20524;-56
2022/03/21 00:35:21;;;;;;;2.57;2.37;;;18.60;36.70;;;;;;5039595;28;20471;-57
2022/03/21 00:37:48;;;;;;;2.40;2.20;;;18.60;36.80;;;;;;5036016;28;20922;-57
2022/03/21 00:40:15;;;;;;;2.80;2.67;;;18.60;36.80;;;;;;5036027;28;20433;-57
2022/03/21 00:42:43;;;;;;;2.20;2.10;;;18.60;36.80;;;;;;5035500;28;20936;-57
2022/03/21 00:45:12;;;;;;;3.00;2.67;;;18.60;36.80;;;;;;5035503;28;20476;-56
2022/03/21 00:47:38;;;;;;;2.57;2.37;;;18.60;36.80;;;;;;5035514;28;20446;-56
2022/03/21 00:50:06;;;;;;;2.37;2.17;;;18.60;36.80;;;;;;5037950;28;20431;-56
2022/03/21 00:52:42;;;;;;;2.40;2.30;;;18.60;36.80;;;;;;5038794;28;20468;-56
2022/03/21 00:55:09;;;;;;;2.60;2.40;;;18.60;36.80;;;;;;5037543;28;20459;-56
2022/03/21 00:57:35;;;;;;;2.43;2.33;;;18.60;36.80;;;;;;5038857;28;20742;-56
2022/03/21 01:00:06;;;;;;;3.93;3.17;;;18.60;36.90;;;;;;5038136;28;20481;-56
2022/03/21 01:02:32;;;;;;;2.40;2.30;;;18.60;36.80;;;;;;5034832;28;20536;-56
2022/03/21 01:04:57;;;;;;;2.67;2.47;;;18.60;36.90;;;;;;5038341;28;20900;-56
2022/03/21 01:07:23;;;;;;;2.67;2.40;;;18.60;36.80;;;;;;5036644;28;20299;-56
2022/03/21 01:09:48;;;;;;;2.37;2.17;;;18.60;36.90;;;;;;5034534;28;20680;-56
2022/03/21 01:12:14;;;;;;;2.33;2.23;;;18.60;36.80;;;;;;5036673;28;20225;-56
2022/03/21 01:14:41;;;;;;;2.27;2.13;;;18.60;36.90;;;;;;5038154;28;20576;-56
2022/03/21 01:17:06;;;;;;;2.40;2.20;;;18.60;36.90;;;;;;5040044;28;20987;-56
2022/03/21 01:19:32;;;;;;;2.47;2.27;;;18.60;36.90;;;;;;5040196;28;20459;-56
2022/03/21 01:21:58;;;;;;;2.60;2.40;;;18.60;36.90;;;;;;5043294;28;20289;-55
2022/03/21 01:24:24;;;;;;;2.10;2.00;;;18.60;36.90;;;;;;5039942;28;21003;-56
2022/03/21 01:26:50;;;;;;;2.30;2.20;;;18.60;36.90;;;;;;5038730;28;20302;-56
2022/03/21 01:29:15;;;;;;;2.03;1.90;;;18.60;36.80;;;;;;5040712;28;20855;-56
2022/03/21 01:31:41;;;;;;;2.63;2.53;;;18.60;36.90;;;;;;5040534;28;20223;-56
2022/03/21 01:34:06;;;;;;;2.17;2.07;;;18.60;36.90;;;;;;5037839;28;20219;-57
2022/03/21 01:36:32;;;;;;;4.97;2.57;;;18.60;36.90;;;;;;5040270;28;20234;-56
2022/03/21 01:38:57;;;;;;;2.13;2.03;;;18.60;36.90;;;;;;5042209;28;20218;-57
2022/03/21 01:41:23;;;;;;;2.60;2.40;;;18.60;36.90;;;;;;5041464;28;20234;-57
2022/03/21 01:44:00;;;;;;;2.30;2.20;;;18.60;37.00;;;;;;5038521;28;20222;-56
2022/03/21 01:46:27;;;;;;;2.17;2.03;;;18.60;36.90;;;;;;5040819;28;20322;-56
2022/03/21 01:48:53;;;;;;;2.27;2.07;;;18.60;37.00;;;;;;5042032;28;20484;-56
2022/03/21 01:51:19;;;;;;;2.27;2.17;;;18.50;36.90;;;;;;5042367;28;20850;-57
2022/03/21 01:56:30;;;;;;;1.93;1.83;;;18.60;37.00;;;;;;5038579;28;20653;-56
2022/03/21 01:58:56;;;;;;;2.20;2.10;;;18.60;37.00;;;;;;5041692;28;20419;-56
2022/03/21 02:01:22;;;;;;;2.30;2.10;;;18.60;37.00;;;;;;5040208;28;20227;-56
2022/03/21 02:03:48;;;;;;;2.83;2.63;;;18.60;37.00;;;;;;5037768;28;20423;-56
2022/03/21 02:06:14;;;;;;;2.80;2.60;;;18.60;37.00;;;;;;5040410;28;20472;-56
2022/03/21 02:08:39;;;;;;;2.30;2.20;;;18.60;37.10;;;;;;5039968;28;20230;-56
2022/03/21 02:11:05;;;;;;;2.27;2.07;;;18.60;37.00;;;;;;5041887;28;20430;-57
2022/03/21 02:13:34;;;;;;;2.20;2.00;;;18.50;37.00;;;;;;5038984;28;20276;-56
2022/03/21 02:15:59;;;;;;;2.77;2.67;;;18.60;37.00;;;;;;5043524;28;20456;-56
2022/03/21 02:18:26;;;;;;;1.80;1.70;;;18.50;37.00;;;;;;5037028;28;20522;-58
2022/03/21 02:20:54;;;;;;;2.10;2.00;;;18.50;37.00;;;;;;5035073;28;20296;-57
2022/03/21 02:23:29;;;;;;;1.80;1.70;;;18.60;37.00;;;;;;5039292;28;20916;-56
2022/03/21 02:25:56;;;;;;;2.27;2.07;;;18.60;37.00;;;;;;5045012;28;20440;-57
2022/03/21 02:28:23;;;;;;;2.60;2.40;;;18.60;37.10;;;;;;5037134;28;20464;-56
2022/03/21 02:30:49;;;;;;;2.03;1.93;;;18.60;37.10;;;;;;5041208;28;20427;-56
2022/03/21 02:33:18;;;;;;;2.00;1.80;;;18.60;37.00;;;;;;5036821;28;20446;-56
2022/03/21 02:35:47;;;;;;;2.63;2.43;;;18.60;37.00;;;;;;5040581;28;20222;-57
2022/03/21 02:38:13;;;;;;;2.00;1.90;;;18.60;37.00;;;;;;5039587;28;20426;-56
2022/03/21 02:40:39;;;;;;;2.40;2.30;;;18.60;37.00;;;;;;5040024;28;20936;-56
2022/03/21 02:43:05;;;;;;;2.73;2.43;;;18.60;37.00;;;;;;5036258;28;20449;-56
2022/03/21 02:45:30;;;;;;;2.30;2.20;;;18.50;36.90;;;;;;5040863;28;20226;-56
2022/03/21 02:47:56;;;;;;;2.30;2.20;;;18.50;37.00;;;;;;5040274;28;20227;-56
2022/03/21 02:50:33;;;;;;;1.80;1.70;;;18.60;37.10;;;;;;5039604;28;20229;-56
2022/03/21 02:53:00;;;;;;;2.53;2.33;;;18.60;37.00;;;;;;5039500;28;20276;-56
2022/03/21 02:55:25;;;;;;;2.70;2.50;;;18.50;37.00;;;;;;5040129;28;20438;-56
2022/03/21 02:57:51;;;;;;;2.00;1.90;;;18.50;37.00;;;;;;5041074;28;20903;-57
2022/03/21 03:00:16;;;;;;;1.80;1.70;;;18.50;37.10;;;;;;5039124;28;20303;-56
2022/03/21 03:02:42;;;;;;;2.30;2.10;;;18.50;37.00;;;;;;5043436;28;20309;-56
2022/03/21 03:05:08;;;;;;;2.20;2.10;;;18.50;37.10;;;;;;5038284;28;20252;-56
2022/03/21 03:07:34;;;;;;;2.60;2.40;;;18.50;37.10;;;;;;5039237;28;20246;-56
2022/03/21 03:10:00;;;;;;;2.23;2.13;;;18.50;37.00;;;;;;5039021;28;20257;-56
2022/03/21 03:12:26;;;;;;;1.90;1.80;;;18.50;37.10;;;;;;5037663;28;20475;-56
2022/03/21 03:14:52;;;;;;;2.40;2.20;;;18.50;37.10;;;;;;5040397;28;20237;-56
2022/03/21 03:17:17;;;;;;;2.40;2.30;;;18.50;37.90;;;;;;5040986;28;20258;-56
2022/03/21 03:19:43;;;;;;;1.90;1.80;;;18.50;37.10;;;;;;5041971;28;20219;-56
2022/03/21 03:22:08;;;;;;;1.83;1.73;;;18.50;37.10;;;;;;5042039;28;20215;-56
2022/03/21 03:24:36;;;;;;;2.33;2.23;;;18.50;37.10;;;;;;5040629;28;20586;-57
2022/03/21 03:27:01;;;;;;;2.57;2.40;;;18.50;37.10;;;;;;5039141;28;20241;-56
2022/03/21 03:29:27;;;;;;;2.00;1.90;;;18.50;37.10;;;;;;5039116;28;20444;-56
2022/03/21 03:31:53;;;;;;;2.23;2.13;;;18.50;37.10;;;;;;5041775;28;20218;-56
2022/03/21 03:34:19;;;;;;;2.37;2.17;;;18.50;37.10;;;;;;5037849;28;20222;-56
2022/03/21 03:36:45;;;;;;;2.27;2.17;;;18.50;37.10;;;;;;5039484;28;20427;-56
2022/03/21 03:39:11;;;;;;;2.40;2.30;;;18.50;37.10;;;;;;5036326;28;20219;-56
2022/03/21 03:41:37;;;;;;;2.13;2.03;;;18.50;37.10;;;;;;5037682;28;20593;-56
2022/03/21 03:44:03;;;;;;;2.27;2.17;;;18.50;37.10;;;;;;5038382;28;20234;-57
2022/03/21 03:46:28;;;;;;;2.37;2.17;;;18.50;37.20;;;;;;5039407;28;20423;-56
2022/03/21 03:48:54;;;;;;;2.87;2.30;;;18.50;37.20;;;;;;5037798;28;20225;-56
2022/03/21 03:51:20;;;;;;;2.20;2.00;;;18.50;37.20;;;;;;5038299;28;20226;-56
2022/03/21 03:53:46;;;;;;;1.90;1.80;;;18.50;37.20;;;;;;5039042;28;20441;-56
2022/03/21 03:56:11;;;;;;;2.20;2.10;;;18.50;37.20;;;;;;5034676;28;20276;-57
2022/03/21 03:58:38;;;;;;;2.40;2.20;;;18.50;37.20;;;;;;5042194;28;20221;-56
2022/03/21 04:01:05;;;;;;;2.30;2.20;;;18.50;37.20;;;;;;5040756;28;20567;-55
2022/03/21 04:03:46;;;;;;;3.10;2.40;;;18.50;37.20;;;;;;5037129;28;21115;-56
2022/03/21 04:06:22;;;;;;;2.07;1.97;;;18.50;37.20;;;;;;5038853;28;20964;-56
2022/03/21 04:08:50;;;;;;;2.20;2.10;;;18.50;37.20;;;;;;5035651;28;20988;-56
2022/03/21 04:11:16;;;;;;;1.97;1.87;;;18.50;37.20;;;;;;5035731;28;20831;-56
2022/03/21 04:13:42;;;;;;;2.10;1.90;;;18.50;37.20;;;;;;5034743;28;20425;-56
2022/03/21 04:16:08;;;;;;;2.20;2.10;;;18.50;37.20;;;;;;5039104;28;20233;-56
2022/03/21 04:18:35;;;;;;;2.33;2.13;;;18.50;37.20;;;;;;5038995;28;20449;-56
2022/03/21 04:21:01;;;;;;;1.90;1.80;;;18.50;37.20;;;;;;5039022;28;20430;-57
2022/03/21 04:23:27;;;;;;;2.23;2.13;;;18.50;37.20;;;;;;5039740;28;20415;-56
2022/03/21 04:25:52;;;;;;;2.00;1.80;;;18.50;37.20;;;;;;5035722;28;20230;-56
2022/03/21 04:28:18;;;;;;;2.17;2.00;;;18.50;37.20;;;;;;5033611;28;20699;-56
2022/03/21 04:30:44;;;;;;;2.23;2.13;;;18.50;37.20;;;;;;5041178;28;20700;-56
2022/03/21 04:33:12;;;;;;;2.13;1.77;;;18.50;37.20;;;;;;5036978;28;20456;-56
2022/03/21 04:35:38;;;;;;;1.90;1.80;;;18.50;37.20;;;;;;5039710;28;20223;-56
2022/03/21 04:38:13;;;;;;;2.03;1.93;;;18.50;37.20;;;;;;5035738;28;20427;-57
2022/03/21 04:40:40;;;;;;;1.90;1.80;;;18.50;37.20;;;;;;5038821;28;20465;-57
2022/03/21 04:43:06;;;;;;;2.10;2.00;;;18.50;37.20;;;;;;5037900;28;20446;-56
2022/03/21 04:45:32;;;;;;;1.97;1.87;;;18.50;37.20;;;;;;5038663;28;20476;-57
2022/03/21 04:47:58;;;;;;;2.13;1.97;;;18.50;37.20;;;;;;5039089;28;20533;-56
2022/03/21 04:50:24;;;;;;;2.10;2.00;;;18.50;37.20;;;;;;5037036;28;20223;-56
2022/03/21 04:52:50;;;;;;;1.87;1.77;;;18.50;37.30;;;;;;5034788;28;20490;-56
2022/03/21 04:55:15;;;;;;;2.47;2.30;;;18.50;37.30;;;;;;5037104;28;20218;-56
2022/03/21 04:57:41;;;;;;;1.80;1.70;;;18.50;38.00;;;;;;5043653;28;20256;-56
2022/03/21 05:00:07;;;;;;;2.13;2.03;;;18.50;37.20;;;;;;5042443;28;20770;-57
2022/03/21 05:02:33;;;;;;;1.90;1.80;;;18.50;37.20;;;;;;5041906;28;20219;-56
2022/03/21 05:04:59;;;;;;;2.20;2.10;;;18.50;37.20;;;;;;5042339;28;20417;-56
2022/03/21 05:07:25;;;;;;;2.10;2.00;;;18.50;37.20;;;;;;5041597;28;20253;-56
2022/03/21 05:09:51;;;;;;;2.37;2.27;;;18.50;37.20;;;;;;5041620;28;20230;-56
2022/03/21 05:12:16;;;;;;;2.30;2.10;;;18.50;37.20;;;;;;5043223;28;20432;-57
2022/03/21 05:14:42;;;;;;;1.77;1.67;;;18.50;37.20;;;;;;5041793;28;20230;-56
2022/03/21 05:17:10;;;;;;;1.90;1.80;;;18.50;37.20;;;;;;5036932;28;20278;-56
2022/03/21 05:19:37;;;;;;;2.00;1.87;;;18.50;37.10;;;;;;5041370;28;20214;-56
2022/03/21 05:22:04;;;;;;;1.90;1.80;;;18.50;37.10;;;;;;5041248;28;20451;-56
2022/03/21 05:32:42;;;;;;;2.30;2.20;;;18.60;37.10;;;;;;5036163;28;20482;-56
2022/03/21 05:37:52;;;;;;;2.30;2.20;;;18.60;37.10;;;;;;5041361;28;20652;-56
2022/03/21 05:40:34;;;;;;;2.00;1.90;;;18.60;37.00;;;;;;5041862;28;20471;-59
2022/03/21 05:43:03;;;;;;;2.10;1.90;;;18.60;37.00;;;;;;5039652;28;20663;-57
2022/03/21 05:45:28;;;;;;;3.77;1.83;;;18.60;36.80;;;;;;5043345;28;20463;-56
2022/03/21 05:50:39;;;;;;;2.27;2.10;;;18.70;36.80;;;;;;5038421;28;20305;-58
2022/03/21 05:53:06;;;;;;;2.10;2.00;;;18.70;36.80;;;;;;5036895;28;20422;-57
2022/03/21 05:55:32;;;;;;;2.17;2.07;;;18.70;36.70;;;;;;5043591;28;20977;-57
2022/03/21 05:57:58;;;;;;;2.10;2.00;;;18.70;36.70;;;;;;5040798;28;20423;-57
2022/03/21 06:00:25;;;;;;;1.83;1.73;;;18.70;36.70;;;;;;5040600;28;20435;-58
2022/03/21 06:02:51;;;;;;;2.13;2.03;;;18.70;36.70;;;;;;5040039;28;20235;-57
2022/03/21 06:05:21;;;;;;;2.10;2.00;;;18.70;36.70;;;;;;5041959;28;20467;-57
2022/03/21 06:07:48;;;;;;;2.87;2.63;;;18.70;36.80;;;;;;5034998;28;20443;-58
2022/03/21 06:10:14;;;;;;;2.17;2.07;;;18.70;36.70;;;;;;5037118;28;20711;-58
2022/03/21 06:12:40;;;;;;;2.07;1.97;;;18.70;36.70;;;;;;5024954;28;20437;-59
2022/03/21 06:15:07;;;;;;;2.27;2.00;;;18.70;36.70;;;;;;5035525;28;20443;-58
2022/03/21 06:17:38;;;;;;;2.20;2.10;;;18.70;36.80;;;;;;5039584;28;20452;-58
2022/03/21 06:20:06;;;;;;;2.73;2.53;;;18.70;36.70;;;;;;5040774;28;20483;-58
2022/03/21 06:22:32;;;;;;;2.20;2.10;;;18.70;36.70;;;;;;5040343;28;20923;-58
2022/03/21 06:24:58;;;;;;;2.03;1.93;;;18.70;36.70;;;;;;5040022;28;20425;-57
2022/03/21 06:27:24;;;;;;;2.10;2.00;;;18.70;36.70;;;;;;5042430;28;20701;-57
2022/03/21 06:29:49;;;;;;;2.00;1.83;;;18.70;36.70;;;;;;5039551;28;20758;-57
2022/03/21 06:32:15;;;;;;;1.83;1.70;;;18.70;36.70;;;;;;5045326;28;20510;-57
2022/03/21 06:34:40;;;;;;;2.33;2.23;;;18.70;36.70;;;;;;5042145;28;20298;-57
2022/03/21 06:37:06;;;;;;;2.17;2.07;;;18.70;36.70;;;;;;5039319;28;20238;-58
2022/03/21 06:39:31;;;;;;;5.50;2.40;;;18.70;36.70;;;;;;5041912;28;20227;-57
2022/03/21 06:41:57;;;;;;;3.27;2.20;;;18.80;36.70;;;;;;5039279;28;20682;-58
2022/03/21 06:44:22;;;;;;;3.00;2.20;;;18.70;36.70;;;;;;5037867;28;20306;-57
2022/03/21 06:46:48;;;;;;;4.27;2.83;;;18.70;36.70;;;;;;5042193;28;20226;-57
2022/03/21 06:49:14;;;;;;;15.70;3.20;;;18.70;36.70;;;;;;5037457;28;20233;-57
2022/03/21 06:51:39;;;;;;;3.70;2.80;;;18.70;36.70;;;;;;5045873;28;20229;-57
2022/03/21 06:54:05;;;;;;;7.90;3.00;;;18.70;36.70;;;;;;5036763;28;20292;-57
2022/03/21 06:56:30;;;;;;;4.07;3.17;;;18.70;36.80;;;;;;5040161;28;20246;-56
2022/03/21 06:58:56;;;;;;;2.60;2.40;;;18.70;36.80;;;;;;5037605;28;20344;-56
2022/03/21 07:01:21;;;;;;;5.00;2.53;;;18.70;36.80;;;;;;5038774;28;20281;-56
2022/03/21 07:03:47;;;;;;;3.50;3.20;;;18.70;36.80;;;;;;5039402;28;20680;-56
2022/03/21 07:06:13;;;;;;;4.00;3.00;;;18.70;36.80;;;;;;5040991;28;20629;-56
2022/03/21 07:08:38;;;;;;;4.03;3.67;;;18.70;36.80;;;;;;5039077;28;20643;-57
2022/03/21 07:11:04;;;;;;;3.43;2.27;;;18.70;36.80;;;;;;5038668;28;20226;-56
2022/03/21 07:13:30;;;;;;;7.00;3.27;;;18.70;36.80;;;;;;5039707;28;20306;-56
2022/03/21 07:15:56;;;;;;;3.93;2.90;;;18.70;36.80;;;;;;5034761;28;20673;-57
2022/03/21 07:18:22;;;;;;;5.77;4.30;;;18.70;37.60;;;;;;5039242;28;20696;-56
2022/03/21 07:20:47;;;;;;;6.70;3.10;;;18.70;36.80;;;;;;5036383;28;20438;-57
2022/03/21 07:23:13;;;;;;;6.40;3.13;;;18.70;36.80;;;;;;5041921;28;20335;-57
2022/03/21 07:25:38;;;;;;;3.20;3.00;;;18.70;36.80;;;;;;5039449;28;20238;-58
2022/03/21 07:28:04;;;;;;;3.17;2.87;;;18.70;36.80;;;;;;5040007;28;20222;-57
2022/03/21 07:30:30;;;;;;;4.97;3.20;;;18.70;36.80;;;;;;5040628;28;20238;-57
2022/03/21 07:32:57;;;;;;;11.50;3.93;;;18.70;36.80;;;;;;5033745;28;20226;-57
2022/03/21 07:35:23;;;;;;;3.40;2.80;;;18.70;36.80;;;;;;5038122;28;20230;-57
2022/03/21 07:37:51;;;;;;;3.53;3.23;;;18.70;36.80;;;;;;5036415;28;20434;-56
2022/03/21 07:40:18;;;;;;;3.23;2.93;;;18.70;36.80;;;;;;5040064;28;20276;-57
2022/03/21 07:42:45;;;;;;;3.20;2.90;;;18.70;36.80;;;;;;5036893;28;20463;-56
2022/03/21 07:47:58;;;;;;;2.67;2.47;;;18.70;36.80;;;;;;5037895;28;20464;-57
2022/03/21 07:50:25;;;;;;;5.37;3.00;;;18.70;36.80;;;;;;5035885;28;20419;-57
2022/03/21 07:52:52;;;;;;;3.77;3.43;;;18.70;36.80;;;;;;5031224;28;20427;-57
2022/03/21 07:55:18;;;;;;;3.63;3.37;;;18.70;36.80;;;;;;5042034;28;20449;-56
2022/03/21 07:57:43;;;;;;;4.97;2.77;;;18.70;36.80;;;;;;5040238;28;20520;-57
2022/03/21 08:00:09;;;;;;;3.00;2.80;;;18.70;36.80;;;;;;5044128;28;20566;-57
2022/03/21 08:02:36;;;;;;;3.57;3.30;;;18.70;36.80;;;;;;5040864;28;20222;-57
2022/03/21 08:05:04;;;;;;;3.80;3.50;;;18.70;36.80;;;;;;5041195;28;20218;-57
2022/03/21 08:07:30;;;;;;;3.10;2.90;;;18.70;36.80;;;;;;5043530;28;20968;-57
2022/03/21 08:09:56;;;;;;;2.93;2.73;;;18.70;36.70;;;;;;5038094;28;20422;-57
2022/03/21 08:12:21;;;;;;;3.40;3.20;;;18.70;36.80;;;;;;5039954;28;20411;-56
2022/03/21 08:14:47;;;;;;;3.03;2.80;;;18.70;36.70;;;;;;5042768;28;20195;-57
2022/03/21 08:17:13;;;;;;;3.60;3.30;;;18.70;36.70;;;;;;5038176;28;20223;-57
2022/03/21 08:19:39;;;;;;;3.60;3.30;;;18.70;36.80;;;;;;5038742;28;20227;-57
2022/03/21 08:22:04;;;;;;;3.30;2.90;;;18.70;36.80;;;;;;5037965;28;20226;-56
2022/03/21 08:24:39;;;;;;;3.50;3.20;;;18.70;36.80;;;;;;5040434;28;20298;-56
2022/03/21 08:27:05;;;;;;;4.60;3.87;;;18.70;36.80;;;;;;5038770;28;20257;-57
2022/03/21 08:29:31;;;;;;;4.43;3.40;;;18.70;36.80;;;;;;5040954;28;20816;-56
2022/03/21 08:31:57;;;;;;;3.20;3.00;;;18.70;36.80;;;;;;5039223;28;20675;-57
2022/03/21 08:34:23;;;;;;;3.60;3.30;;;18.70;36.80;;;;;;5040069;28;20525;-56
2022/03/21 08:36:49;;;;;;;4.83;3.17;;;18.70;36.80;;;;;;5040812;28;20223;-57
2022/03/21 08:39:15;;;;;;;3.60;3.30;;;18.70;36.80;;;;;;5042732;28;20507;-56
2022/03/21 08:41:41;;;;;;;3.00;2.80;;;18.70;36.80;;;;;;5041718;28;20246;-57
2022/03/21 08:44:07;;;;;;;3.67;3.47;;;18.80;36.80;;;;;;5042895;28;20430;-57
2022/03/21 08:46:32;;;;;;;3.90;3.70;;;18.70;36.80;;;;;;5042582;28;20600;-56
2022/03/21 08:51:43;;;;;;;3.93;3.73;;;18.70;36.80;;;;;;5040508;28;20694;-57
2022/03/21 08:54:10;;;;;;;3.73;3.53;;;18.70;36.80;;;;;;5043743;28;20427;-56
2022/03/21 08:56:35;;;;;;;4.10;3.63;;;18.70;36.80;;;;;;5040935;28;20436;-56
2022/03/21 08:59:01;;;;;;;3.87;3.57;;;18.70;36.90;;;;;;5041193;28;20505;-56
2022/03/21 09:01:27;;;;;;;4.07;3.77;;;18.70;36.80;;;;;;5043672;28;20239;-56
2022/03/21 09:03:55;;;;;;;4.10;3.70;;;18.70;36.80;;;;;;5039960;28;20318;-57
2022/03/21 09:06:21;;;;;;;3.77;3.47;;;18.70;36.80;;;;;;5036798;28;21009;-57
2022/03/21 09:08:50;;;;;;;4.10;3.80;;;18.70;36.90;;;;;;5038940;28;20439;-56
2022/03/21 09:11:19;;;;;;;8.87;3.40;;;18.70;36.80;;;;;;5040047;28;20227;-57
2022/03/21 09:13:46;;;;;;;3.90;3.50;;;18.70;36.80;;;;;;5039802;28;20502;-57
2022/03/21 09:16:13;;;;;;;3.90;3.60;;;18.80;36.90;;;;;;5042775;28;20431;-56
2022/03/21 09:18:40;;;;;;;3.70;3.40;;;18.80;36.90;;;;;;5039483;28;20793;-56
2022/03/21 09:21:06;;;;;;;4.47;3.73;;;18.70;36.90;;;;;;5042445;28;20742;-57
2022/03/21 09:23:31;;;;;;;9.20;3.70;;;18.70;36.90;;;;;;5042878;28;20419;-56
2022/03/21 09:25:58;;;;;;;4.10;3.40;;;18.70;36.90;;;;;;5039403;28;20463;-56
2022/03/21 09:28:23;;;;;;;3.43;3.13;;;18.70;36.90;;;;;;5036513;28;20533;-56
2022/03/21 09:30:49;;;;;;;3.70;3.47;;;18.70;36.90;;;;;;5042555;28;20273;-56
2022/03/21 09:33:15;;;;;;;4.40;4.00;;;18.70;36.90;;;;;;5040035;28;20226;-57
2022/03/21 09:35:43;;;;;;;4.10;3.77;;;18.70;37.70;;;;;;5036275;28;20245;-57
2022/03/21 09:38:09;;;;;;;5.30;4.10;;;18.70;37.70;;;;;;5041948;28;20442;-57
2022/03/21 09:40:35;;;;;;;4.43;4.03;;;18.70;37.00;;;;;;5037509;28;20478;-57
2022/03/21 09:43:01;;;;;;;3.57;3.27;;;18.70;37.00;;;;;;5041668;28;20418;-57
2022/03/21 09:45:28;;;;;;;4.30;3.63;;;18.70;36.90;;;;;;5038021;28;21692;-58
2022/03/21 09:50:52;;;;;;;3.77;3.53;;;18.80;37.00;;;;;;5020236;28;20942;-57
2022/03/21 09:53:18;;;;;;;5.07;4.00;;;18.70;37.00;;;;;;5039581;28;20480;-57
2022/03/21 09:55:45;;;;;;;4.93;3.93;;;18.70;37.00;;;;;;5038080;28;20447;-57
2022/03/21 09:58:11;;;;;;;4.50;4.10;;;18.70;37.00;;;;;;5040010;28;20468;-57
2022/03/21 10:00:41;;;;;;;4.37;3.97;;;18.70;37.10;;;;;;5041975;28;20430;-57
2022/03/21 10:03:07;;;;;;;4.20;4.00;;;18.70;37.00;;;;;;5039248;28;20281;-57
2022/03/21 10:05:42;;;;;;;3.70;3.40;;;18.70;37.00;;;;;;5042082;28;20988;-56
2022/03/21 10:08:22;;;;;;;5.90;3.63;;;18.70;37.10;;;;;;5037591;28;20242;-58
2022/03/21 10:11:06;;;;;;;3.10;2.90;;;18.70;37.00;;;;;;5040386;28;20471;-57
2022/03/21 10:13:33;;;;;;;4.80;4.20;;;18.70;37.10;;;;;;5041020;28;20458;-57
2022/03/21 10:16:14;;;;;;;3.83;3.53;;;18.70;37.10;;;;;;5038687;28;20818;-57
2022/03/21 10:18:58;;;;;;;3.90;3.57;;;18.70;37.20;;;;;;5040783;28;20442;-57
2022/03/21 10:21:26;;;;;;;4.17;3.73;;;18.70;37.20;;;;;;5039493;28;20455;-57
2022/03/21 10:24:02;;;;;;;3.83;3.53;;;18.70;37.20;;;;;;5041705;28;20427;-56
2022/03/21 10:26:33;;;;;;;4.03;3.73;;;18.70;37.20;;;;;;5040168;28;20458;-56
2022/03/21 10:29:00;;;;;;;3.50;3.30;;;18.70;37.20;;;;;;5040677;28;20414;-56
2022/03/21 10:31:42;;;;;;;5.80;3.67;;;18.70;37.20;;;;;;5040319;28;20490;-56
2022/03/21 10:34:11;;;;;;;6.73;3.80;;;18.70;37.20;;;;;;5038552;28;20910;-56
2022/03/21 10:36:59;;;;;;;4.00;3.70;;;18.70;37.20;;;;;;5038707;28;20574;-59
2022/03/21 10:39:25;;;;;;;4.10;3.80;;;18.70;37.30;;;;;;5044269;28;20428;-58
2022/03/21 10:41:56;;;;;;;4.37;4.07;;;18.70;37.20;;;;;;5038750;28;20474;-57
2022/03/21 10:44:22;;;;;;;4.87;4.20;;;18.70;37.20;;;;;;5036355;28;20222;-57
2022/03/21 10:46:56;;;;;;;4.60;4.20;;;18.70;37.30;;;;;;5035285;28;20820;-57
2022/03/21 10:49:43;;;;;;;4.43;4.03;;;18.70;37.30;;;;;;5037326;28;20752;-57
2022/03/21 10:52:18;;;;;;;4.40;4.10;;;18.70;37.20;;;;;;5040435;28;20426;-57
2022/03/21 10:54:48;;;;;;;5.13;4.47;;;18.70;38.10;;;;;;5036666;28;20420;-56
2022/03/21 10:57:54;;;;;;;4.33;4.03;;;18.70;37.30;;;;;;5041988;28;20499;-57
2022/03/21 11:00:22;;;;;;;4.07;3.83;;;18.70;37.30;;;;;;4965136;28;20560;-57
2022/03/21 11:02:48;;;;;;;4.07;3.67;;;18.70;37.30;;;;;;5025344;28;20438;-57
2022/03/21 11:05:15;;;;;;;4.00;3.80;;;18.70;37.40;;;;;;5036228;28;20427;-57
2022/03/21 11:07:41;;;;;;;4.23;4.03;;;18.70;37.50;;;;;;5038164;28;20422;-57
2022/03/21 11:10:07;;;;;;;4.07;3.77;;;18.70;37.40;;;;;;5039218;28;20426;-59
2022/03/21 11:12:34;;;;;;;4.47;4.17;;;18.70;37.50;;;;;;5039208;28;20305;-56
2022/03/21 11:15:01;;;;;;;4.20;3.77;;;18.70;37.50;;;;;;5043838;28;20910;-56
2022/03/21 11:17:27;;;;;;;5.40;3.67;;;18.70;37.50;;;;;;5034137;28;20534;-56
2022/03/21 11:19:52;;;;;;;3.73;3.43;;;18.70;37.50;;;;;;5038818;28;20565;-56
2022/03/21 11:22:18;;;;;;;3.70;3.40;;;18.70;37.50;;;;;;5039398;28;20575;-57
2022/03/21 11:24:44;;;;;;;4.07;3.83;;;18.70;37.50;;;;;;5037003;28;20292;-57
2022/03/21 11:27:31;;;;;;;4.10;3.83;;;18.70;37.50;;;;;;5037303;28;21161;-57
2022/03/21 11:30:38;;;;;;;4.13;3.93;;;18.70;37.50;;;;;;5039575;28;20663;-56
2022/03/21 11:33:29;;;;;;;5.73;3.90;;;18.70;37.60;;;;;;5037657;28;20422;-56
2022/03/21 11:36:07;;;;;;;4.23;3.83;;;18.70;37.60;;;;;;5038466;28;20434;-56
2022/03/21 11:38:47;;;;;;;4.40;4.10;;;18.70;37.70;;;;;;5035478;28;20434;-57
2022/03/21 11:41:21;;;;;;;4.77;4.47;;;18.70;37.70;;;;;;5034919;28;20832;-57
2022/03/21 11:44:08;;;;;;;5.07;4.60;;;18.70;37.60;;;;;;5039227;28;20585;-57
2022/03/21 11:46:36;;;;;;;5.63;4.90;;;18.70;37.70;;;;;;5038798;28;20438;-57
2022/03/21 11:49:04;;;;;;;4.73;4.40;;;18.70;37.70;;;;;;5040143;28;20454;-56
2022/03/21 11:51:38;;;;;;;4.77;4.37;;;18.70;37.70;;;;;;5039395;28;20437;-56
2022/03/21 11:54:07;;;;;;;4.43;4.13;;;18.70;37.70;;;;;;5036559;28;20422;-56
2022/03/21 11:56:44;;;;;;;5.00;4.60;;;18.70;37.70;;;;;;5040810;28;20445;-56
2022/03/21 11:59:32;;;;;;;4.67;3.93;;;18.60;37.50;;;;;;5043190;28;20436;-58
2022/03/21 12:02:06;;;;;;;6.20;4.67;;;18.70;37.60;;;;;;5034318;28;20465;-57
2022/03/21 12:04:32;;;;;;;9.83;3.90;;;18.70;37.70;;;;;;5036218;28;20430;-57
2022/03/21 12:06:59;;;;;;;4.20;3.90;;;18.70;37.70;;;;;;5037680;28;20463;-56
2022/03/21 12:09:38;;;;;;;4.80;4.40;;;18.70;37.70;;;;;;5035703;28;20218;-56
2022/03/21 12:12:04;;;;;;;4.40;4.00;;;18.70;37.70;;;;;;5037161;28;20437;-56
2022/03/21 12:14:42;;;;;;;4.93;4.63;;;18.70;37.70;;;;;;5043220;28;20422;-56
2022/03/21 12:17:10;;;;;;;3.80;3.60;;;18.70;37.70;;;;;;5036063;28;20422;-58
2022/03/21 12:20:03;;;;;;;3.97;3.67;;;18.70;37.70;;;;;;5037141;28;20434;-56
2022/03/21 12:22:35;;;;;;;4.40;4.10;;;18.70;37.80;;;;;;5033640;28;20873;-56
2022/03/21 12:25:09;;;;;;;4.23;3.93;;;18.70;37.70;;;;;;5039897;28;20464;-56
2022/03/21 12:27:51;;;;;;;4.47;4.07;;;18.70;37.80;;;;;;5036549;28;20477;-56
2022/03/21 12:30:20;;;;;;;4.30;4.00;;;18.70;37.80;;;;;;5037847;28;20456;-57
2022/03/21 12:32:50;;;;;;;4.40;4.10;;;18.70;37.80;;;;;;5034790;28;20438;-57
2022/03/21 12:35:31;;;;;;;4.10;3.80;;;18.70;37.90;;;;;;5037056;28;20514;-56
2022/03/21 12:38:09;;;;;;;4.40;4.10;;;18.70;37.90;;;;;;5036677;28;20438;-56
2022/03/21 12:41:00;;;;;;;4.57;4.27;;;18.70;38.00;;;;;;5036473;28;20785;-56
2022/03/21 12:43:29;;;;;;;4.47;4.17;;;18.70;38.00;;;;;;5037144;28;20558;-56
2022/03/21 12:46:06;;;;;;;5.30;4.80;;;18.70;38.00;;;;;;5036776;28;20441;-57
2022/03/21 12:48:53;;;;;;;4.70;4.23;;;18.70;38.10;;;;;;5037626;28;21272;-58
2022/03/21 12:51:35;;;;;;;4.43;4.07;;;18.70;38.00;;;;;;5037121;28;20449;-57
2022/03/21 12:54:04;;;;;;;4.80;4.40;;;18.70;38.00;;;;;;5036760;28;20452;-57
2022/03/21 12:56:30;;;;;;;4.93;4.53;;;18.70;38.00;;;;;;5040132;28;20791;-56
2022/03/21 12:58:58;;;;;;;6.10;5.60;;;18.70;38.00;;;;;;5035651;28;20443;-57
2022/03/21 13:01:24;;;;;;;4.53;4.23;;;18.70;38.00;;;;;;5036951;28;20610;-57
2022/03/21 13:10:32;;;;;;;5.70;5.20;;;18.70;38.00;;;;;;5034649;28;20510;-57
2022/03/21 13:12:29;;;;;;;6.60;5.83;;;18.80;37.30;;;;;;5039444;28;20466;-56
2022/03/21 13:15:23;;;;;;;6.20;5.70;;;18.80;37.20;;;;;;5034439;28;20426;-56
2022/03/21 13:17:51;;;;;;;5.10;4.80;;;18.80;37.10;;;;;;5036601;28;20309;-57
2022/03/21 13:20:25;;;;;;;5.87;5.47;;;18.80;37.10;;;;;;5040832;28;20447;-57
2022/03/21 13:22:51;;;;;;;4.90;4.60;;;18.80;37.20;;;;;;5043893;28;20460;-56
2022/03/21 13:25:34;;;;;;;5.30;4.80;;;18.80;37.20;;;;;;5042362;28;20454;-56